createdAt,value
2017-10-10T00:01:36.103Z,8.60
2017-10-10T00:04:03.595Z,8.80
2017-10-10T00:06:31.043Z,8.50
2017-10-10T00:08:58.523Z,8.30
2017-10-10T00:11:25.978Z,8.07
2017-10-10T00:13:53.447Z,8.53
2017-10-10T00:16:21.691Z,8.00
2017-10-10T00:18:49.171Z,8.20
2017-10-10T00:21:16.627Z,7.90
2017-10-10T00:23:44.083Z,8.27
2017-10-10T00:26:11.563Z,8.03
2017-10-10T00:28:39.808Z,8.50
2017-10-10T00:31:07.266Z,7.70
2017-10-10T00:33:34.743Z,8.20
2017-10-10T00:36:02.215Z,8.43
2017-10-10T00:38:30.468Z,8.17
2017-10-10T00:40:57.952Z,8.53
2017-10-10T00:43:26.170Z,7.90
2017-10-10T00:45:53.644Z,8.17
2017-10-10T00:48:21.106Z,8.80
2017-10-10T00:50:48.612Z,7.30
2017-10-10T00:53:16.090Z,8.50
2017-10-10T00:55:43.567Z,8.60
2017-10-10T00:58:11.030Z,8.93
2017-10-10T01:00:38.487Z,8.40
2017-10-10T01:03:05.969Z,8.53
2017-10-10T01:05:34.200Z,8.60
2017-10-10T01:08:01.688Z,8.93
2017-10-10T01:10:29.977Z,9.23
2017-10-10T01:12:58.204Z,9.40
2017-10-10T01:15:25.659Z,8.70
2017-10-10T01:17:53.134Z,9.70
2017-10-10T01:20:20.595Z,9.27
2017-10-10T01:22:48.059Z,9.73
2017-10-10T01:25:15.536Z,9.43
2017-10-10T01:27:43.760Z,10.07
2017-10-10T01:30:11.243Z,10.00
2017-10-10T01:32:38.715Z,10.10
2017-10-10T01:35:06.975Z,9.20
2017-10-10T01:37:34.460Z,9.70
2017-10-10T01:40:02.698Z,9.50
2017-10-10T01:42:30.170Z,9.47
2017-10-10T01:44:57.651Z,10.07
2017-10-10T01:47:25.887Z,11.27
2017-10-10T01:49:53.379Z,10.40
2017-10-10T01:52:20.862Z,10.03
2017-10-10T01:54:48.327Z,8.80
2017-10-10T01:57:15.812Z,10.77
2017-10-10T01:59:43.281Z,9.47
2017-10-10T02:02:11.498Z,10.10
2017-10-10T02:04:38.988Z,10.43
2017-10-10T02:07:06.450Z,10.87
2017-10-10T02:09:33.926Z,10.13
2017-10-10T02:12:01.395Z,11.57
2017-10-10T02:14:29.644Z,9.67
2017-10-10T02:16:57.094Z,11.23
2017-10-10T02:19:24.573Z,10.87
2017-10-10T02:21:52.031Z,10.57
2017-10-10T02:24:19.490Z,11.00
2017-10-10T02:26:47.734Z,11.70
2017-10-10T02:29:15.199Z,11.90
2017-10-10T02:31:43.431Z,11.37
2017-10-10T02:34:10.906Z,12.00
2017-10-10T02:36:38.375Z,12.73
2017-10-10T02:39:05.843Z,12.50
2017-10-10T02:41:33.321Z,13.90
2017-10-10T02:44:01.551Z,12.60
2017-10-10T02:46:29.031Z,12.10
2017-10-10T02:48:56.494Z,13.30
2017-10-10T02:51:23.958Z,13.53
2017-10-10T02:53:51.451Z,15.20
2017-10-10T02:56:18.915Z,12.13
2017-10-10T02:58:46.375Z,13.03
2017-10-10T03:01:13.858Z,13.70
2017-10-10T03:03:41.323Z,13.83
2017-10-10T03:06:08.803Z,12.70
2017-10-10T03:08:36.267Z,13.30
2017-10-10T03:11:04.508Z,14.90
2017-10-10T03:13:31.991Z,12.90
2017-10-10T03:15:59.472Z,14.60
2017-10-10T03:18:27.711Z,13.63
2017-10-10T03:20:55.195Z,13.93
2017-10-10T03:23:23.443Z,13.50
2017-10-10T03:25:51.783Z,14.10
2017-10-10T03:28:19.239Z,14.60
2017-10-10T03:30:46.705Z,13.97
2017-10-10T03:33:14.179Z,15.10
2017-10-10T03:35:41.699Z,15.80
2017-10-10T03:38:09.167Z,16.07
2017-10-10T03:40:36.627Z,16.30
2017-10-10T03:43:04.115Z,15.70
2017-10-10T03:45:31.579Z,17.20
2017-10-10T03:47:59.043Z,16.30
2017-10-10T03:50:26.555Z,16.47
2017-10-10T03:52:53.999Z,17.07
2017-10-10T03:55:21.480Z,15.77
2017-10-10T03:57:48.954Z,17.97
2017-10-10T04:00:16.415Z,16.77
2017-10-10T04:02:43.882Z,16.47
2017-10-10T04:05:12.185Z,17.13
2017-10-10T04:07:39.666Z,17.63
2017-10-10T04:10:07.126Z,17.67
2017-10-10T04:12:34.592Z,17.13
2017-10-10T04:15:02.076Z,19.30
2017-10-10T04:17:29.546Z,18.30
2017-10-10T04:19:58.247Z,18.50
2017-10-10T04:22:26.474Z,20.23
2017-10-10T04:24:53.950Z,21.57
2017-10-10T04:27:21.420Z,20.90
2017-10-10T04:29:49.726Z,20.70
2017-10-10T04:32:17.255Z,20.60
2017-10-10T04:34:45.500Z,20.80
2017-10-10T04:37:12.974Z,19.80
2017-10-10T04:39:40.476Z,21.10
2017-10-10T04:42:07.926Z,19.87
2017-10-10T04:44:35.407Z,20.73
2017-10-10T04:47:02.860Z,21.73
2017-10-10T04:49:30.355Z,20.50
2017-10-10T04:51:57.822Z,19.17
2017-10-10T04:54:26.069Z,21.07
2017-10-10T04:56:53.535Z,21.47
2017-10-10T04:59:21.007Z,21.07
2017-10-10T05:01:49.254Z,20.90
2017-10-10T05:04:16.726Z,20.60
2017-10-10T05:06:44.214Z,21.43
2017-10-10T05:09:12.439Z,23.33
2017-10-10T05:11:39.911Z,22.90
2017-10-10T05:14:07.396Z,22.53
2017-10-10T05:16:35.623Z,22.90
2017-10-10T05:19:03.099Z,23.37
2017-10-10T05:21:30.562Z,24.27
2017-10-10T05:23:58.053Z,24.77
2017-10-10T05:26:25.519Z,25.47
2017-10-10T05:28:52.995Z,26.50
2017-10-10T05:31:20.478Z,28.17
2017-10-10T05:33:47.947Z,26.70
2017-10-10T05:36:16.170Z,28.00
2017-10-10T05:38:43.646Z,29.57
2017-10-10T05:41:11.116Z,27.40
2017-10-10T05:43:38.604Z,27.03
2017-10-10T05:46:06.830Z,28.07
2017-10-10T05:48:34.311Z,27.97
2017-10-10T05:51:01.772Z,29.40
2017-10-10T05:53:29.283Z,33.17
2017-10-10T05:55:56.774Z,32.07
2017-10-10T05:58:24.297Z,31.70
2017-10-10T06:00:51.765Z,32.17
2017-10-10T06:03:19.252Z,36.07
2017-10-10T06:05:46.706Z,34.10
2017-10-10T06:08:14.193Z,32.00
2017-10-10T06:10:42.419Z,37.70
2017-10-10T06:13:09.887Z,37.40
2017-10-10T06:15:37.375Z,36.70
2017-10-10T06:18:05.610Z,38.13
2017-10-10T06:20:33.091Z,40.33
2017-10-10T06:23:00.555Z,39.23
2017-10-10T06:25:28.020Z,39.70
2017-10-10T06:27:56.263Z,40.17
2017-10-10T06:30:23.724Z,41.67
2017-10-10T06:32:51.207Z,38.57
2017-10-10T06:35:19.447Z,39.10
2017-10-10T06:37:46.907Z,39.70
2017-10-10T06:40:14.390Z,40.73
2017-10-10T06:42:41.868Z,38.73
2017-10-10T06:45:10.095Z,39.10
2017-10-10T06:47:37.584Z,38.57
2017-10-10T06:50:05.043Z,38.83
2017-10-10T06:52:33.268Z,39.10
2017-10-10T06:55:00.749Z,38.17
2017-10-10T06:57:28.204Z,36.30
2017-10-10T06:59:55.687Z,36.50
2017-10-10T07:02:23.915Z,34.77
2017-10-10T07:04:51.392Z,38.80
2017-10-10T07:07:18.860Z,36.40
2017-10-10T07:09:47.845Z,36.33
2017-10-10T07:12:15.309Z,35.57
2017-10-10T07:14:43.591Z,37.13
2017-10-10T07:17:11.835Z,35.77
2017-10-10T07:19:39.310Z,35.47
2017-10-10T07:22:06.793Z,36.63
2017-10-10T07:24:35.015Z,38.43
2017-10-10T07:27:02.520Z,37.07
2017-10-10T07:29:30.763Z,36.47
2017-10-10T07:31:58.282Z,34.63
2017-10-10T07:34:25.731Z,36.80
2017-10-10T07:36:53.212Z,36.20
2017-10-10T07:39:20.679Z,35.80
2017-10-10T07:41:48.210Z,39.03
2017-10-10T07:44:15.687Z,36.00
2017-10-10T07:46:43.170Z,35.60
2017-10-10T07:49:10.651Z,34.00
2017-10-10T07:51:38.884Z,35.60
2017-10-10T07:54:06.363Z,34.20
2017-10-10T07:56:33.824Z,33.47
2017-10-10T07:59:01.282Z,35.53
2017-10-10T08:01:29.529Z,35.50
2017-10-10T08:03:56.991Z,32.60
2017-10-10T08:06:24.452Z,34.30
2017-10-10T08:08:51.930Z,33.70
2017-10-10T08:11:20.171Z,33.50
2017-10-10T08:13:47.654Z,34.43
2017-10-10T08:16:15.127Z,31.80
2017-10-10T08:18:43.358Z,33.30
2017-10-10T08:21:10.849Z,31.77
2017-10-10T08:23:38.315Z,31.97
2017-10-10T08:26:05.806Z,31.47
2017-10-10T08:28:33.280Z,29.43
2017-10-10T08:31:01.520Z,29.20
2017-10-10T08:33:28.999Z,28.10
2017-10-10T08:35:56.455Z,28.10
2017-10-10T08:38:23.932Z,27.83
2017-10-10T08:40:51.388Z,28.70
2017-10-10T08:43:18.854Z,25.60
2017-10-10T08:45:46.323Z,26.73
2017-10-10T08:48:14.551Z,26.47
2017-10-10T08:50:42.026Z,29.07
2017-10-10T08:53:09.488Z,27.00
2017-10-10T08:55:36.948Z,26.20
2017-10-10T08:58:04.427Z,26.17
2017-10-10T09:00:31.895Z,27.90
2017-10-10T09:03:00.135Z,27.13
2017-10-10T09:05:27.596Z,26.37
2017-10-10T09:07:55.855Z,25.83
2017-10-10T09:10:23.320Z,25.53
2017-10-10T09:12:50.806Z,24.87
2017-10-10T09:15:18.292Z,24.67
2017-10-10T09:17:45.771Z,24.17
2017-10-10T09:20:13.232Z,23.97
2017-10-10T09:22:40.710Z,25.07
2017-10-10T09:25:08.180Z,24.43
2017-10-10T09:27:35.649Z,23.43
2017-10-10T09:30:03.120Z,23.93
2017-10-10T09:32:31.368Z,24.03
2017-10-10T09:34:58.832Z,23.13
2017-10-10T09:37:27.079Z,22.77
2017-10-10T09:39:54.543Z,23.77
2017-10-10T09:42:22.015Z,23.50
2017-10-10T09:44:49.492Z,24.10
2017-10-10T09:47:17.731Z,21.93
2017-10-10T09:49:45.192Z,22.60
2017-10-10T09:52:12.660Z,21.90
2017-10-10T09:54:40.135Z,23.93
2017-10-10T09:57:08.385Z,23.27
2017-10-10T09:59:35.855Z,23.43
2017-10-10T10:02:04.087Z,22.70
2017-10-10T10:04:31.559Z,23.50
2017-10-10T10:06:59.035Z,24.07
2017-10-10T10:09:26.507Z,23.83
2017-10-10T10:11:54.747Z,22.57
2017-10-10T10:14:22.211Z,23.50
2017-10-10T10:16:49.712Z,23.53
2017-10-10T10:19:17.180Z,22.03
2017-10-10T10:21:44.656Z,23.27
2017-10-10T10:24:12.133Z,22.07
2017-10-10T10:26:39.611Z,22.63
2017-10-10T10:29:07.083Z,22.97
2017-10-10T10:31:35.311Z,21.80
2017-10-10T10:34:02.795Z,20.53
2017-10-10T10:36:30.255Z,21.70
2017-10-10T10:38:58.492Z,20.93
2017-10-10T10:41:25.971Z,21.63
2017-10-10T10:43:53.435Z,19.40
2017-10-10T10:46:20.896Z,17.47
2017-10-10T10:48:48.371Z,18.20
2017-10-10T10:51:16.607Z,17.47
2017-10-10T10:53:44.095Z,17.07
2017-10-10T10:56:11.586Z,17.47
2017-10-10T10:58:39.040Z,17.30
2017-10-10T11:01:06.525Z,18.10
2017-10-10T11:03:34.007Z,17.53
2017-10-10T11:06:01.495Z,16.90
2017-10-10T11:08:28.951Z,16.23
2017-10-10T11:10:56.444Z,15.83
2017-10-10T11:13:23.923Z,15.43
2017-10-10T11:15:51.396Z,15.80
2017-10-10T11:18:18.879Z,15.50
2017-10-10T11:20:46.358Z,15.63
2017-10-10T11:23:13.844Z,14.90
2017-10-10T11:25:41.314Z,13.73
2017-10-10T11:28:08.782Z,11.60
2017-10-10T11:30:37.041Z,14.03
2017-10-10T11:33:04.507Z,12.40
2017-10-10T11:35:31.971Z,10.60
2017-10-10T11:38:00.215Z,9.93
2017-10-10T11:40:27.688Z,10.00
2017-10-10T11:42:55.156Z,9.60
2017-10-10T11:45:22.636Z,9.10
2017-10-10T11:47:50.099Z,9.03
2017-10-10T11:50:17.579Z,9.40
2017-10-10T11:52:45.047Z,8.00
2017-10-10T11:55:12.509Z,9.10
2017-10-10T11:57:39.982Z,7.87
2017-10-10T12:00:07.459Z,8.50
2017-10-10T12:02:35.694Z,7.80
2017-10-10T12:05:03.160Z,8.23
2017-10-10T12:07:30.635Z,7.33
2017-10-10T12:09:58.095Z,7.23
2017-10-10T12:12:25.571Z,7.80
2017-10-10T12:14:53.051Z,7.77
2017-10-10T12:17:20.518Z,6.70
2017-10-10T12:19:47.988Z,6.13
2017-10-10T12:22:15.440Z,7.20
2017-10-10T12:24:42.918Z,7.20
2017-10-10T12:27:10.378Z,6.73
2017-10-10T12:29:37.843Z,5.57
2017-10-10T12:32:05.330Z,5.87
2017-10-10T12:34:32.824Z,6.10
2017-10-10T12:37:00.294Z,5.50
2017-10-10T12:39:27.754Z,5.97
2017-10-10T12:41:56.724Z,5.70
2017-10-10T12:44:24.191Z,5.40
2017-10-10T12:46:51.652Z,5.50
2017-10-10T12:49:19.135Z,5.70
2017-10-10T12:51:46.612Z,5.90
2017-10-10T12:54:14.858Z,6.30
2017-10-10T12:56:42.332Z,5.43
2017-10-10T12:59:10.552Z,6.00
2017-10-10T13:01:38.040Z,6.90
2017-10-10T13:04:05.496Z,6.17
2017-10-10T13:06:32.972Z,5.67
2017-10-10T13:09:01.216Z,5.97
2017-10-10T13:11:28.692Z,6.43
2017-10-10T13:13:56.147Z,5.50
2017-10-10T13:16:23.611Z,6.13
2017-10-10T13:18:51.071Z,5.73
2017-10-10T13:21:19.312Z,6.00
2017-10-10T13:23:46.779Z,5.80
2017-10-10T13:26:14.241Z,5.97
2017-10-10T13:28:41.715Z,4.83
2017-10-10T13:31:09.938Z,5.60
2017-10-10T13:33:37.411Z,5.83
2017-10-10T13:36:04.884Z,5.43
2017-10-10T13:38:32.343Z,5.70
2017-10-10T13:40:59.803Z,5.10
2017-10-10T13:43:27.276Z,5.90
2017-10-10T13:45:55.913Z,5.93
2017-10-10T13:48:24.218Z,5.80
2017-10-10T13:50:51.866Z,5.97
2017-10-10T13:53:19.632Z,5.13
2017-10-10T13:55:49.350Z,5.60
2017-10-10T13:58:17.113Z,5.47
2017-10-10T14:00:44.679Z,5.17
2017-10-10T14:03:12.958Z,5.33
2017-10-10T14:05:41.270Z,5.33
2017-10-10T14:08:08.837Z,4.57
2017-10-10T14:10:36.327Z,4.50
2017-10-10T14:13:03.795Z,4.97
2017-10-10T14:15:31.270Z,4.87
2017-10-10T14:17:59.498Z,4.20
2017-10-10T14:20:26.983Z,3.87
2017-10-10T14:22:54.435Z,4.43
2017-10-10T14:25:21.891Z,4.03
2017-10-10T14:27:49.386Z,4.10
2017-10-10T14:30:17.739Z,4.20
2017-10-10T14:32:45.190Z,3.87
2017-10-10T14:35:12.682Z,3.90
2017-10-10T14:37:40.184Z,3.90
2017-10-10T14:40:07.646Z,4.10
2017-10-10T14:42:35.115Z,3.90
2017-10-10T14:45:04.095Z,3.70
2017-10-10T14:47:31.555Z,4.77
2017-10-10T14:49:59.020Z,3.70
2017-10-10T14:52:26.487Z,4.00
2017-10-10T14:54:54.743Z,4.20
2017-10-10T14:57:22.201Z,4.00
2017-10-10T14:59:49.697Z,3.73
2017-10-10T15:02:17.916Z,4.30
2017-10-10T15:04:45.450Z,3.80
2017-10-10T15:07:12.944Z,5.07
2017-10-10T15:09:40.416Z,4.33
2017-10-10T15:12:08.329Z,5.50
2017-10-10T15:14:36.319Z,4.40
2017-10-10T15:17:05.193Z,4.30
2017-10-10T15:19:32.871Z,4.80
2017-10-10T15:22:00.762Z,4.70
2017-10-10T15:24:28.345Z,4.57
2017-10-10T15:26:56.593Z,5.20
2017-10-10T15:29:24.079Z,4.47
2017-10-10T15:31:52.333Z,4.30
2017-10-10T15:34:19.909Z,4.70
2017-10-10T15:36:48.171Z,5.07
2017-10-10T15:39:15.627Z,5.40
2017-10-10T15:41:43.125Z,5.00
2017-10-10T15:44:10.690Z,5.33
2017-10-10T15:46:38.166Z,5.37
2017-10-10T15:49:05.639Z,4.50
2017-10-10T15:51:33.112Z,5.10
2017-10-10T15:54:00.607Z,5.70
2017-10-10T15:56:28.084Z,4.53
2017-10-10T15:58:55.592Z,4.73
2017-10-10T16:01:23.815Z,4.47
2017-10-10T16:03:51.307Z,4.27
2017-10-10T16:06:18.755Z,4.77
2017-10-10T16:08:46.994Z,5.23
2017-10-10T16:11:14.474Z,4.70
2017-10-10T16:13:41.948Z,4.60
2017-10-10T16:16:09.411Z,4.60
2017-10-10T16:18:36.894Z,4.63
2017-10-10T16:21:04.355Z,4.67
2017-10-10T16:23:31.822Z,4.40
2017-10-10T16:25:59.334Z,5.23
2017-10-10T16:28:26.874Z,4.13
2017-10-10T16:30:54.463Z,4.97
2017-10-10T16:33:22.738Z,4.40
2017-10-10T16:35:50.306Z,4.27
2017-10-10T16:38:18.273Z,5.43
2017-10-10T16:40:45.889Z,4.57
2017-10-10T16:43:13.681Z,5.23
2017-10-10T16:45:41.200Z,5.40
2017-10-10T16:48:08.689Z,5.27
2017-10-10T16:50:36.224Z,5.47
2017-10-10T16:53:03.876Z,5.93
2017-10-10T16:55:31.529Z,5.57
2017-10-10T16:57:59.124Z,5.60
2017-10-10T17:00:26.722Z,5.80
2017-10-10T17:02:54.334Z,5.07
2017-10-10T17:05:21.929Z,5.70
2017-10-10T17:07:49.664Z,5.80
2017-10-10T17:10:17.508Z,6.23
2017-10-10T17:12:45.040Z,5.33
2017-10-10T17:15:12.512Z,6.03
2017-10-10T17:17:39.972Z,6.30
2017-10-10T17:20:07.434Z,6.60
2017-10-10T17:22:34.920Z,6.67
2017-10-10T17:25:02.384Z,5.90
2017-10-10T17:27:29.856Z,5.50
2017-10-10T17:29:58.108Z,6.73
2017-10-10T17:32:25.587Z,5.87
2017-10-10T17:34:53.830Z,7.10
2017-10-10T17:37:21.310Z,6.20
2017-10-10T17:39:49.575Z,7.20
2017-10-10T17:42:17.030Z,7.00
2017-10-10T17:44:44.541Z,7.73
2017-10-10T17:47:12.010Z,6.80
2017-10-10T17:49:39.567Z,6.97
2017-10-10T17:52:07.044Z,7.43
2017-10-10T17:54:34.530Z,7.90
2017-10-10T17:57:02.142Z,8.37
2017-10-10T17:59:31.071Z,7.50
2017-10-10T18:01:58.764Z,8.80
2017-10-10T18:04:26.263Z,8.67
2017-10-10T18:06:53.735Z,8.90
2017-10-10T18:09:21.228Z,8.40
2017-10-10T18:11:49.496Z,7.30
2017-10-10T18:14:17.770Z,8.00
2017-10-10T18:16:46.079Z,8.30
2017-10-10T18:19:13.560Z,7.47
2017-10-10T18:21:41.050Z,8.33
2017-10-10T18:24:08.722Z,9.10
2017-10-10T18:26:36.238Z,8.60
2017-10-10T18:29:03.832Z,8.53
2017-10-10T18:31:31.336Z,8.30
2017-10-10T18:33:58.888Z,7.60
2017-10-10T18:36:26.376Z,8.60
2017-10-10T18:38:53.853Z,8.10
2017-10-10T18:41:21.321Z,9.67
2017-10-10T18:43:48.869Z,9.40
2017-10-10T18:46:16.532Z,8.67
2017-10-10T18:48:44.065Z,14.67
2017-10-10T18:51:11.735Z,8.53
2017-10-10T18:53:39.214Z,8.87
2017-10-10T18:56:07.465Z,10.47
2017-10-10T18:58:35.072Z,12.40
2017-10-10T19:01:02.592Z,10.67
2017-10-10T19:03:30.090Z,9.97
2017-10-10T19:05:58.393Z,10.03
2017-10-10T19:08:25.958Z,10.03
2017-10-10T19:10:53.619Z,9.77
2017-10-10T19:13:21.122Z,9.70
2017-10-10T19:15:49.593Z,9.93
2017-10-10T19:18:17.847Z,10.70
2017-10-10T19:20:45.380Z,11.23
2017-10-10T19:23:13.295Z,11.27
2017-10-10T19:25:40.841Z,12.00
2017-10-10T19:28:08.334Z,12.77
2017-10-10T19:30:36.152Z,11.50
2017-10-10T19:33:03.634Z,15.50
2017-10-10T19:35:31.901Z,11.90
2017-10-10T19:37:59.439Z,11.57
2017-10-10T19:40:27.023Z,12.40
2017-10-10T19:42:54.692Z,10.90
2017-10-10T19:45:22.254Z,10.57
2017-10-10T19:47:50.028Z,10.20
2017-10-10T19:50:18.339Z,11.53
2017-10-10T19:52:46.065Z,11.70
2017-10-10T19:55:13.544Z,10.40
2017-10-10T19:57:41.028Z,11.00
2017-10-10T20:00:08.510Z,9.83
2017-10-10T20:02:35.987Z,10.40
2017-10-10T20:05:04.240Z,10.10
2017-10-10T20:07:31.726Z,11.03
2017-10-10T20:10:00.506Z,10.13
2017-10-10T20:12:28.003Z,10.67
2017-10-10T20:14:55.475Z,10.30
2017-10-10T20:17:22.939Z,14.00
2017-10-10T20:19:50.432Z,11.40
2017-10-10T20:22:18.667Z,10.50
2017-10-10T20:24:46.156Z,11.50
2017-10-10T20:27:14.423Z,12.13
2017-10-10T20:29:42.671Z,12.07
2017-10-10T20:32:10.158Z,11.50
2017-10-10T20:34:38.472Z,11.90
2017-10-10T20:37:05.944Z,13.20
2017-10-10T20:39:33.427Z,12.77
2017-10-10T20:42:00.904Z,12.50
2017-10-10T20:44:29.147Z,13.33
2017-10-10T20:46:56.618Z,12.77
2017-10-10T20:49:24.093Z,13.27
2017-10-10T20:51:52.314Z,12.63
2017-10-10T20:54:19.815Z,12.93
2017-10-10T20:56:47.274Z,12.77
2017-10-10T20:59:14.762Z,13.07
2017-10-10T21:01:42.238Z,13.00
2017-10-10T21:04:09.702Z,12.03
2017-10-10T21:06:37.179Z,11.80
2017-10-10T21:09:04.639Z,14.43
2017-10-10T21:11:32.100Z,14.10
2017-10-10T21:13:59.632Z,13.90
2017-10-10T21:16:27.115Z,13.30
2017-10-10T21:18:54.603Z,13.03
2017-10-10T21:21:22.828Z,13.77
2017-10-10T21:23:50.306Z,13.30
2017-10-10T21:26:17.780Z,11.90
2017-10-10T21:28:46.006Z,13.90
2017-10-10T21:31:13.482Z,13.47
2017-10-10T21:33:40.951Z,13.07
2017-10-10T21:36:08.445Z,12.40
2017-10-10T21:38:35.927Z,14.10
2017-10-10T21:41:03.407Z,12.90
2017-10-10T21:43:31.293Z,13.20
2017-10-10T21:45:58.759Z,13.03
2017-10-10T21:48:26.247Z,12.23
2017-10-10T21:50:53.748Z,12.33
2017-10-10T21:53:21.230Z,13.50
2017-10-10T21:55:48.712Z,12.73
2017-10-10T21:58:16.192Z,11.40
2017-10-10T22:00:43.647Z,12.70
2017-10-10T22:03:11.146Z,13.30
2017-10-10T22:05:38.595Z,12.27
2017-10-10T22:08:06.085Z,13.70
2017-10-10T22:10:34.323Z,12.60
2017-10-10T22:13:01.810Z,12.63
2017-10-10T22:15:30.033Z,12.43
2017-10-10T22:17:57.515Z,13.20
2017-10-10T22:20:25.010Z,12.60
2017-10-10T22:22:53.228Z,13.80
2017-10-10T22:25:20.703Z,14.70
2017-10-10T22:27:48.184Z,14.07
2017-10-10T22:30:16.410Z,13.47
2017-10-10T22:32:43.903Z,13.60
2017-10-10T22:35:11.402Z,14.33
2017-10-10T22:37:38.867Z,13.17
2017-10-10T22:40:06.336Z,14.00
2017-10-10T22:42:33.801Z,15.00
2017-10-10T22:45:01.287Z,14.93
2017-10-10T22:47:28.755Z,14.10
2017-10-10T22:49:57.003Z,14.90
2017-10-10T22:52:24.486Z,15.27
2017-10-10T22:54:52.732Z,15.40
2017-10-10T22:57:20.189Z,16.03
2017-10-10T22:59:47.646Z,16.93
2017-10-10T23:02:15.134Z,15.90
2017-10-10T23:04:43.365Z,16.70
2017-10-10T23:07:10.844Z,16.90
2017-10-10T23:09:38.318Z,17.00
2017-10-10T23:12:06.547Z,16.17
2017-10-10T23:14:34.026Z,17.70
2017-10-10T23:17:01.490Z,16.60
2017-10-10T23:19:28.962Z,15.83
2017-10-10T23:21:57.211Z,15.50
2017-10-10T23:24:24.675Z,15.70
2017-10-10T23:26:52.168Z,13.90
2017-10-10T23:29:20.390Z,15.33
2017-10-10T23:31:47.863Z,13.70
2017-10-10T23:57:04.335Z,11.03
2017-10-10T23:59:31.811Z,12.10
